Time;durP1;ratioP1;P1;durP2;ratioP2;P2;SDS_P1;SDS_P2;PMS_P1;PMS_P2;Temp;Humidity;BMP_temperature;BMP_pressure;BME280_temperature;BME280_humidity;BME280_pressure;Samples;Min_cycle;Max_cycle;Signal;HPM_P1;HPM_P2
2023/04/02 00:00:09;;;;;;;0.70;0.70;;;;;;;;;;5038529;28;20184;-82
2023/04/02 00:02:45;;;;;;;0.70;0.70;;;;;;;;;;5037562;28;20179;-80
2023/04/02 00:05:15;;;;;;;0.60;0.60;;;;;;;;;;5037888;28;20257;-82
2023/04/02 00:07:43;;;;;;;0.70;0.70;;;;;;;;;;5037952;28;20183;-82
2023/04/02 00:10:28;;;;;;;0.70;0.70;;;;;;;;;;5037630;28;20557;-80
2023/04/02 00:13:05;;;;;;;0.70;0.70;;;;;;;;;;5037424;28;20200;-82
2023/04/02 00:15:31;;;;;;;0.60;0.60;;;;;;;;;;5037992;28;20293;-82
2023/04/02 00:17:58;;;;;;;0.70;0.70;;;;;;;;;;5037654;28;20246;-81
2023/04/02 00:20:25;;;;;;;0.70;0.70;;;;;;;;;;5038115;28;20263;-82
2023/04/02 00:22:51;;;;;;;0.60;0.60;;;;;;;;;;5039688;28;20240;-83
2023/04/02 00:25:18;;;;;;;0.60;0.60;;;;;;;;;;5057540;28;20171;-81
2023/04/02 00:27:44;;;;;;;0.73;0.73;;;;;;;;;;5057336;28;20176;-81
2023/04/02 00:30:14;;;;;;;0.70;0.70;;;;;;;;;;5057842;28;20205;-81
2023/04/02 00:32:41;;;;;;;0.60;0.60;;;;;;;;;;5057305;28;20186;-82
2023/04/02 00:35:27;;;;;;;0.70;0.70;;;;;;;;;;5057436;28;20236;-80
2023/04/02 00:37:53;;;;;;;0.70;0.70;;;;;;;;;;5057461;28;20237;-83
2023/04/02 00:40:24;;;;;;;0.70;0.70;;;;;;;;;;5057691;28;20181;-82
2023/04/02 00:42:52;;;;;;;0.60;0.60;;;;;;;;;;5057418;28;20199;-82
2023/04/02 00:45:29;;;;;;;0.70;0.70;;;;;;;;;;5058112;28;20239;-81
2023/04/02 00:47:56;;;;;;;0.63;0.63;;;;;;;;;;5057847;28;20175;-83
2023/04/02 00:50:36;;;;;;;0.70;0.70;;;;;;;;;;5057730;28;20183;-82
2023/04/02 00:53:09;;;;;;;0.60;0.60;;;;;;;;;;5057328;28;20238;-81
2023/04/02 00:55:41;;;;;;;0.70;0.70;;;;;;;;;;5058009;28;20533;-83
2023/04/02 00:58:21;;;;;;;0.70;0.70;;;;;;;;;;5061266;28;20234;-82
2023/04/02 01:00:51;;;;;;;0.70;0.70;;;;;;;;;;5076596;28;20183;-80
2023/04/02 01:03:17;;;;;;;0.70;0.70;;;;;;;;;;5075043;28;20199;-80
2023/04/02 01:05:44;;;;;;;0.70;0.70;;;;;;;;;;5057777;28;20271;-81
2023/04/02 01:08:10;;;;;;;0.70;0.70;;;;;;;;;;5057623;28;20508;-82
2023/04/02 01:10:56;;;;;;;0.60;0.60;;;;;;;;;;5056808;28;20214;-80
2023/04/02 01:13:22;;;;;;;0.70;0.70;;;;;;;;;;5056508;28;20666;-81
2023/04/02 01:15:56;;;;;;;0.70;0.70;;;;;;;;;;5057547;28;20236;-81
2023/04/02 01:18:37;;;;;;;0.60;0.60;;;;;;;;;;5056843;28;20211;-81
2023/04/02 01:21:09;;;;;;;0.80;0.80;;;;;;;;;;5056957;28;20189;-81
2023/04/02 01:23:40;;;;;;;0.70;0.70;;;;;;;;;;5056666;28;20286;-80
2023/04/02 01:26:06;;;;;;;0.80;0.80;;;;;;;;;;5056959;28;20186;-82
2023/04/02 01:28:51;;;;;;;0.60;0.60;;;;;;;;;;5056363;28;20176;-83
2023/04/02 01:31:17;;;;;;;0.70;0.70;;;;;;;;;;5056707;28;20163;-81
2023/04/02 01:33:43;;;;;;;0.70;0.70;;;;;;;;;;5056178;28;20220;-83
2023/04/02 01:36:29;;;;;;;0.70;0.70;;;;;;;;;;5057034;28;20187;-81
2023/04/02 01:39:17;;;;;;;0.60;0.60;;;;;;;;;;5056454;28;20553;-82
2023/04/02 01:41:43;;;;;;;0.70;0.70;;;;;;;;;;5056758;28;20262;-81
2023/04/02 01:44:11;;;;;;;0.80;0.80;;;;;;;;;;5056231;28;20214;-84
2023/04/02 01:46:40;;;;;;;0.60;0.60;;;;;;;;;;5056315;28;20179;-82
2023/04/02 01:49:14;;;;;;;0.70;0.70;;;;;;;;;;5056351;28;20179;-84
2023/04/02 01:51:42;;;;;;;0.60;0.60;;;;;;;;;;5057046;28;20212;-81
2023/04/02 01:54:09;;;;;;;0.73;0.73;;;;;;;;;;5056268;28;20272;-83
2023/04/02 01:56:35;;;;;;;0.70;0.70;;;;;;;;;;5056516;28;20629;-82
2023/04/02 01:59:04;;;;;;;0.70;0.70;;;;;;;;;;5055769;28;20175;-83
2023/04/02 02:01:32;;;;;;;0.60;0.60;;;;;;;;;;5056918;28;20533;-83
2023/04/02 02:03:59;;;;;;;0.60;0.60;;;;;;;;;;5056360;28;20209;-82
2023/04/02 02:06:25;;;;;;;0.70;0.70;;;;;;;;;;5056354;28;20277;-82
2023/04/02 02:09:02;;;;;;;0.60;0.60;;;;;;;;;;5056757;28;20249;-81
2023/04/02 02:11:29;;;;;;;0.80;0.80;;;;;;;;;;5056079;28;20309;-80
2023/04/02 02:13:57;;;;;;;0.80;0.80;;;;;;;;;;5056933;28;20205;-83
2023/04/02 02:16:26;;;;;;;0.80;0.80;;;;;;;;;;5057403;28;20174;-82
2023/04/02 02:18:53;;;;;;;0.80;0.80;;;;;;;;;;5056492;28;20728;-82
2023/04/02 02:21:26;;;;;;;0.70;0.70;;;;;;;;;;5057488;28;20179;-82
2023/04/02 02:23:53;;;;;;;0.77;0.77;;;;;;;;;;5056487;28;20206;-82
2023/04/02 02:26:20;;;;;;;0.70;0.70;;;;;;;;;;5057169;28;20175;-82
2023/04/02 02:28:49;;;;;;;0.70;0.70;;;;;;;;;;5057007;28;20261;-83
2023/04/02 02:31:26;;;;;;;0.70;0.70;;;;;;;;;;5057255;28;20175;-82
2023/04/02 02:33:53;;;;;;;0.80;0.80;;;;;;;;;;5057060;28;20213;-81
2023/04/02 02:36:22;;;;;;;0.60;0.60;;;;;;;;;;5057346;28;20179;-84
2023/04/02 02:38:48;;;;;;;0.90;0.90;;;;;;;;;;5058395;28;20223;-83
2023/04/02 02:41:32;;;;;;;0.70;0.70;;;;;;;;;;5058319;28;20206;-84
2023/04/02 02:44:11;;;;;;;0.60;0.60;;;;;;;;;;5057067;28;20195;-80
2023/04/02 02:46:40;;;;;;;0.73;0.73;;;;;;;;;;5057043;28;20182;-83
2023/04/02 02:49:06;;;;;;;0.70;0.70;;;;;;;;;;5056374;28;20179;-82
2023/04/02 02:51:48;;;;;;;0.63;0.63;;;;;;;;;;5057700;28;20203;-82
2023/04/02 02:54:14;;;;;;;0.70;0.70;;;;;;;;;;5056435;28;20860;-83
2023/04/02 02:56:43;;;;;;;0.67;0.67;;;;;;;;;;5058054;28;20179;-83
2023/04/02 02:59:10;;;;;;;0.60;0.60;;;;;;;;;;5059115;28;20183;-83
2023/04/02 03:01:36;;;;;;;0.70;0.70;;;;;;;;;;5058061;28;20218;-84
2023/04/02 03:04:02;;;;;;;0.80;0.80;;;;;;;;;;5058055;28;20662;-83
2023/04/02 03:06:29;;;;;;;0.70;0.70;;;;;;;;;;5066849;28;20187;-82
2023/04/02 03:09:04;;;;;;;0.70;0.70;;;;;;;;;;5066915;28;20258;-80
2023/04/02 03:11:36;;;;;;;0.70;0.70;;;;;;;;;;5066460;28;20179;-82
2023/04/02 03:14:16;;;;;;;0.70;0.70;;;;;;;;;;5066669;28;20198;-80
2023/04/02 03:16:48;;;;;;;0.70;0.70;;;;;;;;;;5067334;28;20168;-81
2023/04/02 03:19:28;;;;;;;0.70;0.70;;;;;;;;;;5069659;28;20191;-80
2023/04/02 03:22:01;;;;;;;0.70;0.70;;;;;;;;;;5068487;28;20191;-80
2023/04/02 03:24:43;;;;;;;0.60;0.60;;;;;;;;;;5070656;28;20187;-81
2023/04/02 03:27:18;;;;;;;0.60;0.60;;;;;;;;;;5072433;28;20179;-83
2023/04/02 03:29:49;;;;;;;0.73;0.73;;;;;;;;;;5072070;28;20175;-80
2023/04/02 03:32:22;;;;;;;0.70;0.70;;;;;;;;;;5071919;28;20175;-83
2023/04/02 03:34:51;;;;;;;0.77;0.77;;;;;;;;;;5063103;28;20206;-83
2023/04/02 03:37:19;;;;;;;0.70;0.70;;;;;;;;;;5060075;28;20289;-82
2023/04/02 03:40:01;;;;;;;0.70;0.70;;;;;;;;;;5060556;28;20176;-83
2023/04/02 03:42:38;;;;;;;0.80;0.80;;;;;;;;;;5059937;28;20832;-83
2023/04/02 03:45:07;;;;;;;0.80;0.80;;;;;;;;;;5059440;28;20178;-82
2023/04/02 03:47:34;;;;;;;0.80;0.80;;;;;;;;;;5059309;28;20171;-83
2023/04/02 03:50:11;;;;;;;0.70;0.70;;;;;;;;;;5059622;28;20175;-83
2023/04/02 03:52:37;;;;;;;0.73;0.73;;;;;;;;;;5059511;28;20653;-83
2023/04/02 03:55:10;;;;;;;0.70;0.70;;;;;;;;;;5059714;28;20175;-83
2023/04/02 03:57:47;;;;;;;0.70;0.70;;;;;;;;;;5060344;28;20241;-83
2023/04/02 04:00:20;;;;;;;0.80;0.80;;;;;;;;;;5060912;28;20622;-83
2023/04/02 04:02:51;;;;;;;0.60;0.60;;;;;;;;;;5059405;28;20178;-83
2023/04/02 04:05:25;;;;;;;0.90;0.90;;;;;;;;;;5059963;28;20187;-82
2023/04/02 04:07:53;;;;;;;0.70;0.70;;;;;;;;;;5066498;28;20182;-83
2023/04/02 04:10:22;;;;;;;0.80;0.80;;;;;;;;;;5073700;28;20176;-85
2023/04/02 04:12:49;;;;;;;0.77;0.77;;;;;;;;;;5073617;28;20194;-82
2023/04/02 04:15:21;;;;;;;0.80;0.80;;;;;;;;;;5073642;28;20183;-81
2023/04/02 04:17:50;;;;;;;0.70;0.70;;;;;;;;;;5073886;28;20218;-84
2023/04/02 04:20:36;;;;;;;0.80;0.80;;;;;;;;;;5073978;28;20202;-82
2023/04/02 04:23:17;;;;;;;0.70;0.70;;;;;;;;;;5073649;28;20194;-83
2023/04/02 04:25:43;;;;;;;0.60;0.60;;;;;;;;;;5074381;28;20278;-85
2023/04/02 04:28:20;;;;;;;0.70;0.70;;;;;;;;;;5072392;28;20195;-83
2023/04/02 04:30:58;;;;;;;0.80;0.80;;;;;;;;;;5072138;28;20178;-82
2023/04/02 04:33:38;;;;;;;0.77;0.77;;;;;;;;;;5071939;28;20213;-81
2023/04/02 04:36:05;;;;;;;0.80;0.80;;;;;;;;;;5072470;28;20182;-81
2023/04/02 04:38:37;;;;;;;0.70;0.70;;;;;;;;;;5072082;28;20829;-82
2023/04/02 04:41:03;;;;;;;0.70;0.70;;;;;;;;;;5072315;28;20917;-83
2023/04/02 04:43:34;;;;;;;0.80;0.80;;;;;;;;;;5072247;28;20230;-82
2023/04/02 04:46:02;;;;;;;0.80;0.80;;;;;;;;;;5072285;28;20213;-82
2023/04/02 04:48:48;;;;;;;0.70;0.70;;;;;;;;;;5073267;28;20182;-82
2023/04/02 04:51:35;;;;;;;0.60;0.60;;;;;;;;;;5072509;28;20178;-83
2023/04/02 04:54:01;;;;;;;0.70;0.70;;;;;;;;;;5071110;28;20179;-81
2023/04/02 04:56:28;;;;;;;0.70;0.70;;;;;;;;;;5073244;28;20239;-79
2023/04/02 04:58:55;;;;;;;0.70;0.70;;;;;;;;;;5071346;28;20226;-80
2023/04/02 05:01:31;;;;;;;0.80;0.80;;;;;;;;;;5055306;28;20183;-81
2023/04/02 05:03:59;;;;;;;0.80;0.80;;;;;;;;;;5055468;28;20677;-82
2023/04/02 05:06:38;;;;;;;0.73;0.73;;;;;;;;;;5055515;28;20274;-82
2023/04/02 05:09:10;;;;;;;0.80;0.80;;;;;;;;;;5055077;28;20178;-82
2023/04/02 05:11:40;;;;;;;0.70;0.70;;;;;;;;;;5054932;28;20255;-82
2023/04/02 05:14:08;;;;;;;0.70;0.70;;;;;;;;;;5054344;28;20195;-82
2023/04/02 05:16:43;;;;;;;0.70;0.70;;;;;;;;;;5053865;28;20521;-82
2023/04/02 05:19:09;;;;;;;0.90;0.90;;;;;;;;;;5057643;28;20202;-83
2023/04/02 05:21:38;;;;;;;0.63;0.63;;;;;;;;;;5057710;28;20389;-81
2023/04/02 05:24:04;;;;;;;0.70;0.70;;;;;;;;;;5056829;28;20199;-82
2023/04/02 05:26:37;;;;;;;0.70;0.70;;;;;;;;;;5057909;28;20237;-82
2023/04/02 05:29:06;;;;;;;0.70;0.70;;;;;;;;;;5056659;28;20194;-81
2023/04/02 05:31:47;;;;;;;0.60;0.60;;;;;;;;;;5057403;28;20183;-82
2023/04/02 05:34:21;;;;;;;0.67;0.67;;;;;;;;;;5057240;28;20222;-82
2023/04/02 05:36:47;;;;;;;0.80;0.80;;;;;;;;;;5057253;28;20190;-82
2023/04/02 05:39:20;;;;;;;0.70;0.70;;;;;;;;;;5056668;28;20204;-82
2023/04/02 05:41:46;;;;;;;0.77;0.77;;;;;;;;;;5057549;28;20246;-83
2023/04/02 05:44:32;;;;;;;0.70;0.70;;;;;;;;;;5056194;28;20249;-83
2023/04/02 05:47:01;;;;;;;0.80;0.80;;;;;;;;;;5056270;28;20684;-82
2023/04/02 05:49:34;;;;;;;0.70;0.70;;;;;;;;;;5056696;28;20262;-81
2023/04/02 05:52:01;;;;;;;0.60;0.60;;;;;;;;;;5056106;28;20182;-82
2023/04/02 05:54:34;;;;;;;0.70;0.70;;;;;;;;;;5055575;28;20645;-83
2023/04/02 05:57:03;;;;;;;0.70;0.70;;;;;;;;;;5055749;28;20239;-82
2023/04/02 05:59:31;;;;;;;0.80;0.80;;;;;;;;;;5055807;28;20189;-82
2023/04/02 06:02:02;;;;;;;0.80;0.80;;;;;;;;;;5056454;28;20524;-81
2023/04/02 06:04:50;;;;;;;0.77;0.77;;;;;;;;;;5055471;28;20240;-81
2023/04/02 06:07:19;;;;;;;0.80;0.80;;;;;;;;;;5055823;28;20586;-82
2023/04/02 06:09:48;;;;;;;0.70;0.70;;;;;;;;;;5055636;28;20205;-82
2023/04/02 06:12:17;;;;;;;0.70;0.70;;;;;;;;;;5055581;28;20667;-83
2023/04/02 06:14:44;;;;;;;0.70;0.70;;;;;;;;;;5055234;28;20268;-83
2023/04/02 06:17:17;;;;;;;0.70;0.70;;;;;;;;;;5055292;28;20207;-83
2023/04/02 06:19:43;;;;;;;0.73;0.73;;;;;;;;;;5055129;28;20182;-82
2023/04/02 06:22:15;;;;;;;0.70;0.70;;;;;;;;;;5055174;28;20630;-85
2023/04/02 06:24:41;;;;;;;0.70;0.70;;;;;;;;;;5055722;28;20269;-82
2023/04/02 06:27:10;;;;;;;0.70;0.70;;;;;;;;;;5056032;28;20179;-81
2023/04/02 06:29:39;;;;;;;0.80;0.80;;;;;;;;;;5059733;28;20842;-83
2023/04/02 06:32:08;;;;;;;0.50;0.50;;;;;;;;;;5057178;28;20183;-81
2023/04/02 06:34:36;;;;;;;0.60;0.60;;;;;;;;;;5054805;28;20195;-84
2023/04/02 06:37:04;;;;;;;0.63;0.63;;;;;;;;;;5055191;28;20203;-81
2023/04/02 06:39:30;;;;;;;0.60;0.60;;;;;;;;;;5042858;28;20183;-85
2023/04/02 06:42:00;;;;;;;0.60;0.60;;;;;;;;;;5044555;28;20179;-83
2023/04/02 06:44:28;;;;;;;0.60;0.60;;;;;;;;;;5056618;28;20199;-83
2023/04/02 06:46:57;;;;;;;0.70;0.70;;;;;;;;;;5058566;28;20175;-85
2023/04/02 06:49:25;;;;;;;0.60;0.60;;;;;;;;;;5053597;28;20184;-80
2023/04/02 06:51:53;;;;;;;0.60;0.60;;;;;;;;;;5049247;28;20638;-82
2023/04/02 06:54:20;;;;;;;0.53;0.53;;;;;;;;;;5050130;28;20252;-81
2023/04/02 06:56:47;;;;;;;0.50;0.50;;;;;;;;;;5053526;28;20679;-80
2023/04/02 06:59:14;;;;;;;0.57;0.57;;;;;;;;;;5056727;28;20198;-83
2023/04/02 07:01:45;;;;;;;0.70;0.70;;;;;;;;;;5057364;28;20217;-81
2023/04/02 07:04:11;;;;;;;0.60;0.60;;;;;;;;;;5058667;28;20195;-84
2023/04/02 07:06:37;;;;;;;0.60;0.60;;;;;;;;;;5055646;28;20646;-82
2023/04/02 07:09:04;;;;;;;0.60;0.60;;;;;;;;;;5056769;28;20213;-82
2023/04/02 07:11:30;;;;;;;0.70;0.70;;;;;;;;;;5056975;28;20626;-82
2023/04/02 07:13:56;;;;;;;0.70;0.70;;;;;;;;;;5057566;28;20210;-84
2023/04/02 07:16:26;;;;;;;0.60;0.60;;;;;;;;;;5057898;28;20186;-83
2023/04/02 07:18:54;;;;;;;0.60;0.60;;;;;;;;;;5056438;28;20206;-81
2023/04/02 07:21:20;;;;;;;0.60;0.60;;;;;;;;;;5057555;28;20179;-81
2023/04/02 07:23:46;;;;;;;0.60;0.60;;;;;;;;;;5059351;28;20195;-81
2023/04/02 07:26:14;;;;;;;0.60;0.60;;;;;;;;;;5060199;28;20202;-82
2023/04/02 07:28:40;;;;;;;0.70;0.70;;;;;;;;;;5059174;28;20179;-80
2023/04/02 07:31:25;;;;;;;0.60;0.60;;;;;;;;;;5058532;28;20281;-82
2023/04/02 07:33:52;;;;;;;0.60;0.60;;;;;;;;;;5058303;28;20199;-82
2023/04/02 07:36:20;;;;;;;0.60;0.60;;;;;;;;;;5060067;28;20673;-81
2023/04/02 07:38:46;;;;;;;0.60;0.60;;;;;;;;;;5051152;28;20574;-81
2023/04/02 07:41:13;;;;;;;0.70;0.70;;;;;;;;;;5053805;28;20167;-82
2023/04/02 07:43:39;;;;;;;0.57;0.57;;;;;;;;;;5054867;28;20226;-81
2023/04/02 07:46:05;;;;;;;0.70;0.70;;;;;;;;;;5054636;28;20206;-82
2023/04/02 07:48:31;;;;;;;0.60;0.60;;;;;;;;;;5048103;28;20187;-83
2023/04/02 07:50:58;;;;;;;0.70;0.70;;;;;;;;;;5053794;28;20171;-82
2023/04/02 07:53:28;;;;;;;0.60;0.60;;;;;;;;;;5044310;28;20200;-82
2023/04/02 07:55:54;;;;;;;0.70;0.70;;;;;;;;;;5045031;28;20258;-84
2023/04/02 07:58:20;;;;;;;0.67;0.67;;;;;;;;;;5053633;28;20298;-82
2023/04/02 08:00:46;;;;;;;0.60;0.60;;;;;;;;;;5050835;28;20207;-82
2023/04/02 08:03:13;;;;;;;0.60;0.60;;;;;;;;;;5056135;28;20199;-81
2023/04/02 08:05:39;;;;;;;0.70;0.70;;;;;;;;;;5049720;28;20221;-81
2023/04/02 08:08:05;;;;;;;0.70;0.70;;;;;;;;;;5056293;28;20221;-85
2023/04/02 08:10:31;;;;;;;0.60;0.60;;;;;;;;;;5056936;28;20276;-85
2023/04/02 08:12:57;;;;;;;0.70;0.70;;;;;;;;;;5058715;28;20740;-85
2023/04/02 08:15:23;;;;;;;0.57;0.57;;;;;;;;;;5050409;28;20183;-84
2023/04/02 08:17:50;;;;;;;0.60;0.60;;;;;;;;;;5060662;28;20202;-83
2023/04/02 08:20:21;;;;;;;0.60;0.60;;;;;;;;;;5052040;28;20176;-83
2023/04/02 08:22:47;;;;;;;0.60;0.60;;;;;;;;;;5042096;28;20285;-83
2023/04/02 08:25:14;;;;;;;0.60;0.60;;;;;;;;;;5049702;28;20186;-82
2023/04/02 08:27:40;;;;;;;0.60;0.60;;;;;;;;;;5049804;28;20183;-83
2023/04/02 08:30:07;;;;;;;0.60;0.60;;;;;;;;;;5059258;28;20183;-82
2023/04/02 08:32:33;;;;;;;0.50;0.50;;;;;;;;;;5058086;28;20175;-83
2023/04/02 08:34:59;;;;;;;0.80;0.80;;;;;;;;;;5060386;28;20179;-83
2023/04/02 08:37:25;;;;;;;0.63;0.63;;;;;;;;;;5059836;28;20964;-83
2023/04/02 08:39:51;;;;;;;0.60;0.60;;;;;;;;;;5060811;28;20195;-82
2023/04/02 08:42:22;;;;;;;0.60;0.60;;;;;;;;;;5061415;28;20175;-83
2023/04/02 08:44:51;;;;;;;0.60;0.60;;;;;;;;;;5061075;28;20202;-84
2023/04/02 08:47:19;;;;;;;0.73;0.73;;;;;;;;;;5060860;28;20175;-83
2023/04/02 08:49:48;;;;;;;0.60;0.60;;;;;;;;;;5061619;28;20191;-83
2023/04/02 08:52:23;;;;;;;0.60;0.60;;;;;;;;;;5071001;28;20178;-81
2023/04/02 08:54:49;;;;;;;0.60;0.60;;;;;;;;;;5071979;28;20209;-82
2023/04/02 08:57:22;;;;;;;0.60;0.60;;;;;;;;;;5064875;28;20267;-84
2023/04/02 08:59:59;;;;;;;0.70;0.70;;;;;;;;;;5046044;28;20175;-84
2023/04/02 09:02:30;;;;;;;0.50;0.50;;;;;;;;;;5047295;28;20190;-84
2023/04/02 09:04:58;;;;;;;0.60;0.60;;;;;;;;;;5058306;28;20188;-84
2023/04/02 09:07:24;;;;;;;0.53;0.53;;;;;;;;;;5058404;28;20247;-84
2023/04/02 09:09:50;;;;;;;0.57;0.57;;;;;;;;;;5056765;28;20619;-84
2023/04/02 09:12:20;;;;;;;0.67;0.67;;;;;;;;;;5056547;28;20178;-85
2023/04/02 09:14:56;;;;;;;0.60;0.60;;;;;;;;;;5056752;28;20708;-84
2023/04/02 09:17:23;;;;;;;0.50;0.50;;;;;;;;;;5057631;28;20234;-84
2023/04/02 09:19:54;;;;;;;0.50;0.50;;;;;;;;;;5057401;28;20178;-84
2023/04/02 09:22:22;;;;;;;0.60;0.60;;;;;;;;;;5056038;28;20654;-84
2023/04/02 09:24:52;;;;;;;0.50;0.50;;;;;;;;;;5057355;28;20195;-85
2023/04/02 09:27:19;;;;;;;0.50;0.50;;;;;;;;;;5057653;28;20548;-85
2023/04/02 09:29:47;;;;;;;0.60;0.60;;;;;;;;;;5058352;28;20278;-83
2023/04/02 09:32:25;;;;;;;0.50;0.50;;;;;;;;;;5057618;28;20175;-83
2023/04/02 09:35:04;;;;;;;0.60;0.60;;;;;;;;;;5057629;28;20214;-84
2023/04/02 09:37:32;;;;;;;0.60;0.60;;;;;;;;;;5057588;28;20215;-84
2023/04/02 09:40:17;;;;;;;0.50;0.50;;;;;;;;;;5057419;28;20248;-84
2023/04/02 09:42:43;;;;;;;0.50;0.50;;;;;;;;;;5057292;28;20179;-84
2023/04/02 09:45:14;;;;;;;0.60;0.60;;;;;;;;;;5058187;28;20258;-84
2023/04/02 09:47:40;;;;;;;0.70;0.70;;;;;;;;;;5058316;28;20190;-84
2023/04/02 09:50:32;;;;;;;0.53;0.53;;;;;;;;;;5057470;28;20582;-84
2023/04/02 09:52:59;;;;;;;0.60;0.60;;;;;;;;;;5056113;28;20277;-84
2023/04/02 09:55:29;;;;;;;0.40;0.40;;;;;;;;;;5058037;28;20186;-83
2023/04/02 09:58:11;;;;;;;0.50;0.50;;;;;;;;;;5057123;28;20268;-84
2023/04/02 10:00:38;;;;;;;0.53;0.53;;;;;;;;;;5057305;28;20199;-83
2023/04/02 10:03:07;;;;;;;0.60;0.60;;;;;;;;;;5057529;28;20696;-84
2023/04/02 10:05:34;;;;;;;0.50;0.50;;;;;;;;;;5058089;28;20194;-84
2023/04/02 10:08:07;;;;;;;0.40;0.40;;;;;;;;;;5057971;28;20190;-84
2023/04/02 10:10:42;;;;;;;0.60;0.60;;;;;;;;;;5057553;28;20175;-84
2023/04/02 10:13:14;;;;;;;0.40;0.40;;;;;;;;;;5056720;28;20205;-84
2023/04/02 10:16:01;;;;;;;0.60;0.60;;;;;;;;;;5057400;28;20186;-84
2023/04/02 10:18:30;;;;;;;0.50;0.50;;;;;;;;;;5056469;28;20238;-84
2023/04/02 10:20:56;;;;;;;0.60;0.60;;;;;;;;;;5058123;28;20190;-83
2023/04/02 10:23:24;;;;;;;0.60;0.60;;;;;;;;;;5058571;28;20312;-84
2023/04/02 10:26:13;;;;;;;0.60;0.60;;;;;;;;;;5042083;28;20180;-84
2023/04/02 10:28:54;;;;;;;0.70;0.70;;;;;;;;;;5039234;28;20619;-85
2023/04/02 10:31:25;;;;;;;0.57;0.57;;;;;;;;;;5047652;28;20235;-83
2023/04/02 10:33:53;;;;;;;0.57;0.57;;;;;;;;;;5044388;28;20192;-84
2023/04/02 10:36:20;;;;;;;0.50;0.50;;;;;;;;;;5039950;28;20180;-84
2023/04/02 10:38:46;;;;;;;0.50;0.50;;;;;;;;;;5039868;28;20568;-83
2023/04/02 10:41:14;;;;;;;0.70;0.70;;;;;;;;;;5039873;28;20168;-84
2023/04/02 10:43:46;;;;;;;0.60;0.60;;;;;;;;;;5051299;28;20321;-84
2023/04/02 10:46:36;;;;;;;0.50;0.50;;;;;;;;;;5053765;28;20172;-84
2023/04/02 10:49:20;;;;;;;0.60;0.60;;;;;;;;;;5052283;28;20233;-84
2023/04/02 10:52:04;;;;;;;0.60;0.60;;;;;;;;;;5053084;28;20183;-84
2023/04/02 10:54:37;;;;;;;0.40;0.40;;;;;;;;;;5055498;28;20199;-83
2023/04/02 10:57:06;;;;;;;0.47;0.47;;;;;;;;;;5052486;28;20187;-84
2023/04/02 10:59:37;;;;;;;0.50;0.50;;;;;;;;;;5042446;28;20200;-84
2023/04/02 11:02:06;;;;;;;0.50;0.50;;;;;;;;;;5053675;28;20186;-83
2023/04/02 11:04:43;;;;;;;0.50;0.50;;;;;;;;;;5040332;28;20203;-84
2023/04/02 11:07:16;;;;;;;0.57;0.57;;;;;;;;;;5049131;28;20650;-84
2023/04/02 11:09:43;;;;;;;0.50;0.50;;;;;;;;;;5051807;28;20178;-83
2023/04/02 11:12:20;;;;;;;0.50;0.50;;;;;;;;;;5042758;28;20180;-84
2023/04/02 11:14:46;;;;;;;0.50;0.50;;;;;;;;;;5059309;28;20553;-84
2023/04/02 11:17:13;;;;;;;0.57;0.57;;;;;;;;;;5051298;28;20199;-84
2023/04/02 11:19:39;;;;;;;0.60;0.60;;;;;;;;;;5051855;28;20168;-84
2023/04/02 11:22:08;;;;;;;0.40;0.40;;;;;;;;;;5059766;28;20186;-82
2023/04/02 11:24:37;;;;;;;0.50;0.50;;;;;;;;;;5056053;28;20223;-84
2023/04/02 11:27:05;;;;;;;0.50;0.50;;;;;;;;;;5048655;28;20298;-84
2023/04/02 11:29:33;;;;;;;0.50;0.50;;;;;;;;;;5048558;28;20253;-84
2023/04/02 11:32:17;;;;;;;0.60;0.60;;;;;;;;;;5054522;28;20183;-84
2023/04/02 11:34:43;;;;;;;0.50;0.50;;;;;;;;;;5058888;28;20191;-84
2023/04/02 11:37:11;;;;;;;0.50;0.50;;;;;;;;;;5050538;28;20211;-84
2023/04/02 11:39:48;;;;;;;0.60;0.60;;;;;;;;;;5052046;28;20175;-83
2023/04/02 11:42:23;;;;;;;0.40;0.40;;;;;;;;;;5059386;28;20598;-84
2023/04/02 11:44:50;;;;;;;0.50;0.50;;;;;;;;;;5044183;28;20191;-84
2023/04/02 11:47:26;;;;;;;0.50;0.50;;;;;;;;;;5059061;28;20599;-84
2023/04/02 11:49:52;;;;;;;0.50;0.50;;;;;;;;;;5059257;28;20175;-83
2023/04/02 11:52:22;;;;;;;0.40;0.40;;;;;;;;;;5060259;28;20182;-83
2023/04/02 11:55:05;;;;;;;0.50;0.50;;;;;;;;;;5060255;28;20682;-83
2023/04/02 11:57:31;;;;;;;0.40;0.40;;;;;;;;;;5060951;28;20570;-84
2023/04/02 12:00:09;;;;;;;0.47;0.47;;;;;;;;;;5061115;28;20219;-84
2023/04/02 12:02:41;;;;;;;0.50;0.50;;;;;;;;;;5069690;28;20163;-82
2023/04/02 12:05:13;;;;;;;0.50;0.50;;;;;;;;;;5062698;28;20206;-82
2023/04/02 12:07:45;;;;;;;0.60;0.60;;;;;;;;;;5048879;28;20240;-83
2023/04/02 12:10:17;;;;;;;0.50;0.50;;;;;;;;;;5061767;28;20538;-84
2023/04/02 12:12:43;;;;;;;0.60;0.60;;;;;;;;;;5071995;28;20245;-83
2023/04/02 12:15:27;;;;;;;0.50;0.50;;;;;;;;;;5056850;28;20180;-83
2023/04/02 12:18:02;;;;;;;0.60;0.60;;;;;;;;;;5070186;28;20259;-83
2023/04/02 12:20:29;;;;;;;0.60;0.60;;;;;;;;;;5067678;28;20174;-83
2023/04/02 12:22:55;;;;;;;0.40;0.40;;;;;;;;;;5075945;28;20191;-83
2023/04/02 12:25:32;;;;;;;0.40;0.40;;;;;;;;;;5059100;28;20244;-82
2023/04/02 12:28:04;;;;;;;0.40;0.40;;;;;;;;;;5041912;28;21031;-84
2023/04/02 12:30:30;;;;;;;0.47;0.47;;;;;;;;;;5037032;28;20180;-84
2023/04/02 12:32:56;;;;;;;0.50;0.50;;;;;;;;;;5035621;28;20264;-84
2023/04/02 12:35:28;;;;;;;0.40;0.40;;;;;;;;;;5052622;28;20179;-84
2023/04/02 12:37:54;;;;;;;0.50;0.50;;;;;;;;;;5041756;28;20264;-84
2023/04/02 12:40:20;;;;;;;0.47;0.47;;;;;;;;;;5057191;28;20348;-83
2023/04/02 12:42:46;;;;;;;0.50;0.50;;;;;;;;;;5061824;28;20172;-82
2023/04/02 12:45:44;;;;;;;0.50;0.50;;;;;;;;;;5074239;28;20194;-83
2023/04/02 12:48:12;;;;;;;0.50;0.50;;;;;;;;;;5018803;28;20294;-85
2023/04/02 12:50:40;;;;;;;0.50;0.50;;;;;;;;;;5048100;28;20238;-85
2023/04/02 12:53:14;;;;;;;0.50;0.50;;;;;;;;;;5055967;28;20210;-84
2023/04/02 12:55:45;;;;;;;0.40;0.40;;;;;;;;;;5054010;28;20201;-84
2023/04/02 12:58:38;;;;;;;0.40;0.40;;;;;;;;;;5047371;28;20214;-84
2023/04/02 13:01:11;;;;;;;0.50;0.50;;;;;;;;;;5053258;28;20183;-85
2023/04/02 13:03:38;;;;;;;0.50;0.50;;;;;;;;;;5055894;28;20242;-83
2023/04/02 13:06:17;;;;;;;0.50;0.50;;;;;;;;;;5055867;28;20202;-85
2023/04/02 13:08:43;;;;;;;0.50;0.50;;;;;;;;;;5048969;28;20183;-84
2023/04/02 13:11:09;;;;;;;0.43;0.43;;;;;;;;;;5047859;28;20580;-85
2023/04/02 13:13:36;;;;;;;0.40;0.40;;;;;;;;;;5036496;28;20204;-85
2023/04/02 13:16:05;;;;;;;0.40;0.40;;;;;;;;;;5035795;28;20318;-86
2023/04/02 13:18:32;;;;;;;0.50;0.50;;;;;;;;;;5048841;28;20210;-85
2023/04/02 13:21:02;;;;;;;0.43;0.43;;;;;;;;;;5035633;28;20254;-86
2023/04/02 13:23:32;;;;;;;0.40;0.40;;;;;;;;;;5049837;28;20219;-86
2023/04/02 13:26:00;;;;;;;0.50;0.50;;;;;;;;;;5047513;28;20181;-86
2023/04/02 13:28:26;;;;;;;0.50;0.50;;;;;;;;;;5055828;28;20175;-86
2023/04/02 13:30:52;;;;;;;0.50;0.50;;;;;;;;;;5051065;28;20639;-86
2023/04/02 13:33:19;;;;;;;0.43;0.43;;;;;;;;;;5048836;28;20739;-86
2023/04/02 13:35:45;;;;;;;0.57;0.57;;;;;;;;;;5051956;28;20245;-86
2023/04/02 13:38:11;;;;;;;0.50;0.50;;;;;;;;;;5037326;28;20215;-86
2023/04/02 13:40:37;;;;;;;0.47;0.47;;;;;;;;;;5041199;28;20253;-86
2023/04/02 13:43:04;;;;;;;0.40;0.40;;;;;;;;;;5045334;28;20310;-86
2023/04/02 13:45:35;;;;;;;0.50;0.50;;;;;;;;;;5049161;28;20273;-86
2023/04/02 13:48:02;;;;;;;0.43;0.43;;;;;;;;;;5044497;28;20687;-86
2023/04/02 13:50:29;;;;;;;0.50;0.50;;;;;;;;;;5055590;28;20187;-86
2023/04/02 13:52:57;;;;;;;0.50;0.50;;;;;;;;;;5040116;28;20195;-87
2023/04/02 13:55:25;;;;;;;0.40;0.40;;;;;;;;;;5035049;28;20639;-87
2023/04/02 13:57:51;;;;;;;0.40;0.40;;;;;;;;;;5041188;28;20210;-86
2023/04/02 14:00:18;;;;;;;0.50;0.50;;;;;;;;;;5041716;28;20550;-86
2023/04/02 14:02:47;;;;;;;0.50;0.50;;;;;;;;;;5055190;28;20262;-87
2023/04/02 14:05:26;;;;;;;0.50;0.50;;;;;;;;;;5057512;28;20214;-86
2023/04/02 14:07:55;;;;;;;0.47;0.47;;;;;;;;;;5043813;28;20188;-89
2023/04/02 14:10:21;;;;;;;0.50;0.50;;;;;;;;;;5051163;28;20968;-85
2023/04/02 14:12:47;;;;;;;0.60;0.60;;;;;;;;;;5059417;28;20182;-87
2023/04/02 14:15:40;;;;;;;0.50;0.50;;;;;;;;;;5049831;28;20260;-86
2023/04/02 14:18:06;;;;;;;0.63;0.63;;;;;;;;;;5035540;28;20227;-86
2023/04/02 14:20:40;;;;;;;0.53;0.53;;;;;;;;;;5047887;28;20175;-85
2023/04/02 14:23:06;;;;;;;0.60;0.60;;;;;;;;;;5052024;28;20253;-86
2023/04/02 14:25:32;;;;;;;0.70;0.70;;;;;;;;;;5050854;28;20171;-86
2023/04/02 14:28:03;;;;;;;0.53;0.53;;;;;;;;;;5057902;28;20179;-87
2023/04/02 14:30:32;;;;;;;0.53;0.53;;;;;;;;;;5047545;28;20179;-86
2023/04/02 14:33:12;;;;;;;0.50;0.50;;;;;;;;;;5050761;28;20214;-86
2023/04/02 14:35:41;;;;;;;0.70;0.70;;;;;;;;;;5045950;28;20214;-86
2023/04/02 14:38:10;;;;;;;0.53;0.53;;;;;;;;;;5058190;28;20219;-86
2023/04/02 14:40:40;;;;;;;0.57;0.57;;;;;;;;;;5058740;28;20187;-86
2023/04/02 14:43:11;;;;;;;0.60;0.60;;;;;;;;;;5041861;28;20710;-86
2023/04/02 14:45:50;;;;;;;0.60;0.60;;;;;;;;;;5049502;28;20934;-86
2023/04/02 14:48:20;;;;;;;0.70;0.70;;;;;;;;;;5065516;28;20186;-87
2023/04/02 14:50:46;;;;;;;0.60;0.60;;;;;;;;;;5063302;28;20180;-88
2023/04/02 14:53:22;;;;;;;0.60;0.60;;;;;;;;;;5066259;28;20226;-86
2023/04/02 14:55:49;;;;;;;0.70;0.70;;;;;;;;;;5073762;28;20186;-86
2023/04/02 14:58:24;;;;;;;0.60;0.60;;;;;;;;;;5070391;28;20214;-87
2023/04/02 15:00:57;;;;;;;0.60;0.60;;;;;;;;;;5071790;28;20262;-86
2023/04/02 15:03:42;;;;;;;0.60;0.60;;;;;;;;;;5056374;28;20176;-87